Time;durP1;ratioP1;P1;durP2;ratioP2;P2;SDS_P1;SDS_P2;PMS_P1;PMS_P2;Temp;Humidity;BMP_temperature;BMP_pressure;BME280_temperature;BME280_humidity;BME280_pressure;Samples;Min_cycle;Max_cycle;Signal;HPM_P1;HPM_P2
2022/06/18 00:00:21;;;;;;;20.25;10.73;;;16.40;99.90;;;;;;4922389;29;20038;-73
2022/06/18 00:02:47;;;;;;;23.77;10.90;;;16.40;99.90;;;;;;4925355;29;20155;-73
2022/06/18 00:05:15;;;;;;;19.27;10.85;;;16.40;99.90;;;;;;4926282;29;20123;-73
2022/06/18 00:07:48;;;;;;;19.05;11.02;;;16.40;99.90;;;;;;4923811;29;20071;-73
2022/06/18 00:10:20;;;;;;;18.60;10.15;;;16.40;99.90;;;;;;4925345;29;20032;-72
2022/06/18 00:15:34;;;;;;;23.30;10.32;;;16.40;99.90;;;;;;4923873;29;20081;-73
2022/06/18 00:18:00;;;;;;;18.55;10.95;;;16.40;99.90;;;;;;4914450;29;20036;-72
2022/06/18 00:20:29;;;;;;;21.02;11.25;;;16.40;99.90;;;;;;4909580;29;20050;-72
2022/06/18 00:22:57;;;;;;;21.48;10.38;;;16.40;99.90;;;;;;4924773;29;20074;-72
2022/06/18 00:25:33;;;;;;;19.70;10.75;;;16.30;99.90;;;;;;4924718;29;20367;-72
2022/06/18 00:27:59;;;;;;;17.67;10.93;;;16.30;99.90;;;;;;4924440;29;20023;-73
2022/06/18 00:30:27;;;;;;;18.88;10.63;;;16.30;99.90;;;;;;4917241;29;20040;-73
2022/06/18 00:32:53;;;;;;;18.70;10.98;;;16.20;99.90;;;;;;4925196;29;20047;-73
2022/06/18 00:35:19;;;;;;;19.83;11.70;;;16.10;99.90;;;;;;4910354;29;20408;-73
2022/06/18 00:37:47;;;;;;;17.88;10.13;;;16.10;99.90;;;;;;4907671;29;20051;-73
2022/06/18 00:40:17;;;;;;;15.80;9.25;;;16.00;99.90;;;;;;4924681;29;20035;-73
2022/06/18 00:42:44;;;;;;;21.57;10.80;;;15.90;99.90;;;;;;4923515;29;20087;-73
2022/06/18 00:45:15;;;;;;;17.30;10.85;;;15.80;99.90;;;;;;4924551;29;20281;-73
2022/06/18 00:47:47;;;;;;;19.02;9.25;;;15.80;99.90;;;;;;4925494;29;20052;-73
2022/06/18 00:50:40;;;;;;;14.88;9.32;;;15.70;99.90;;;;;;4923154;29;20118;-73
2022/06/18 00:53:15;;;;;;;18.15;9.52;;;15.70;99.90;;;;;;4916599;29;20114;-74
2022/06/18 00:55:43;;;;;;;19.40;10.88;;;15.70;99.90;;;;;;4917090;29;20120;-73
2022/06/18 00:58:14;;;;;;;14.85;9.23;;;15.70;99.90;;;;;;4906554;29;20548;-74
2022/06/18 01:00:43;;;;;;;20.27;10.63;;;15.70;99.90;;;;;;4921530;29;20068;-73
2022/06/18 01:03:28;;;;;;;17.77;9.73;;;15.70;99.90;;;;;;4925322;29;20044;-73
2022/06/18 01:05:56;;;;;;;16.58;9.38;;;15.70;99.90;;;;;;4922959;29;20035;-73
2022/06/18 01:08:26;;;;;;;17.30;9.43;;;15.70;99.90;;;;;;4922624;29;20078;-74
2022/06/18 01:10:55;;;;;;;17.80;9.60;;;15.70;99.90;;;;;;4922942;29;20040;-73
2022/06/18 01:13:26;;;;;;;14.90;9.55;;;15.70;99.90;;;;;;4924394;29;20113;-73
2022/06/18 01:15:54;;;;;;;16.73;9.40;;;15.70;99.90;;;;;;4925034;29;20038;-73
2022/06/18 01:18:20;;;;;;;13.30;8.90;;;15.60;99.90;;;;;;4922582;29;20451;-73
2022/06/18 01:20:53;;;;;;;17.92;9.23;;;15.60;99.90;;;;;;4923469;29;20059;-73
2022/06/18 01:23:33;;;;;;;16.92;10.00;;;15.60;99.90;;;;;;4914054;29;20099;-73
2022/06/18 01:25:59;;;;;;;15.57;9.55;;;15.60;99.90;;;;;;4914414;29;20103;-73
2022/06/18 01:28:25;;;;;;;17.25;9.93;;;15.50;99.90;;;;;;4906120;29;20088;-73
2022/06/18 01:30:50;;;;;;;16.02;9.68;;;15.50;99.90;;;;;;4920005;29;20468;-74
2022/06/18 01:33:17;;;;;;;13.77;9.77;;;15.40;99.90;;;;;;4914732;29;20047;-73
2022/06/18 01:35:47;;;;;;;16.70;9.77;;;15.40;99.90;;;;;;4924201;29;20499;-74
2022/06/18 01:38:13;;;;;;;16.83;9.68;;;15.30;99.90;;;;;;4925111;29;20034;-74
2022/06/18 01:44:13;;;;;;;18.35;9.65;;;15.30;99.90;;;;;;4910345;29;20050;-73
2022/06/18 01:46:43;;;;;;;18.30;9.35;;;15.20;99.90;;;;;;4924941;29;20060;-73
2022/06/18 01:49:11;;;;;;;14.40;9.05;;;15.20;99.90;;;;;;4916314;29;20044;-74
2022/06/18 01:51:41;;;;;;;17.17;10.40;;;15.20;99.90;;;;;;4917631;29;20123;-73
2022/06/18 01:54:26;;;;;;;13.10;9.57;;;15.20;99.90;;;;;;4925371;29;20040;-73
2022/06/18 01:56:59;;;;;;;15.13;9.65;;;15.20;99.90;;;;;;4924884;29;20561;-74
2022/06/18 01:59:45;;;;;;;14.88;10.45;;;15.20;99.90;;;;;;4919315;29;20027;-73
2022/06/18 02:02:11;;;;;;;13.77;9.77;;;15.10;99.90;;;;;;4917822;29;20383;-74
2022/06/18 02:04:37;;;;;;;16.55;10.27;;;15.10;99.90;;;;;;4922428;29;20032;-74
2022/06/18 02:07:06;;;;;;;17.52;11.35;;;15.10;99.90;;;;;;4924905;29;20035;-74
2022/06/18 02:10:07;;;;;;;22.15;10.82;;;15.10;99.90;;;;;;4922629;29;20082;-73
2022/06/18 02:12:37;;;;;;;20.55;11.23;;;15.10;99.90;;;;;;4920008;29;20040;-73
2022/06/18 02:15:13;;;;;;;17.08;11.38;;;15.20;99.90;;;;;;4914992;29;20056;-72
2022/06/18 02:17:40;;;;;;;15.38;10.90;;;15.30;99.90;;;;;;4922444;29;20039;-72
2022/06/18 02:20:12;;;;;;;15.60;10.32;;;15.30;99.90;;;;;;4920565;29;20101;-73
2022/06/18 02:22:42;;;;;;;20.38;9.85;;;15.40;99.90;;;;;;4925168;29;20503;-72
2022/06/18 02:25:09;;;;;;;14.52;10.35;;;15.40;99.90;;;;;;4916463;29;20032;-72
2022/06/18 02:27:35;;;;;;;17.70;10.27;;;15.40;99.90;;;;;;4924952;29;20062;-72
2022/06/18 02:30:01;;;;;;;18.33;11.55;;;15.40;99.90;;;;;;4924497;29;20063;-72
2022/06/18 02:32:34;;;;;;;17.20;10.45;;;15.40;99.90;;;;;;4926460;29;20039;-72
2022/06/18 02:35:00;;;;;;;19.30;10.52;;;15.40;99.90;;;;;;4922272;29;20567;-72
2022/06/18 02:37:30;;;;;;;15.05;10.32;;;15.40;99.90;;;;;;4922105;29;20119;-73
2022/06/18 02:39:58;;;;;;;16.30;10.73;;;15.30;99.90;;;;;;4922040;29;20043;-73
2022/06/18 02:42:25;;;;;;;20.48;10.60;;;15.20;99.90;;;;;;4927719;29;20031;-72
2022/06/18 02:44:51;;;;;;;17.85;10.85;;;15.20;99.90;;;;;;4927698;29;20039;-72
2022/06/18 02:47:20;;;;;;;16.17;11.75;;;15.20;99.90;;;;;;4926579;29;20026;-72
2022/06/18 02:50:00;;;;;;;14.10;10.45;;;15.10;99.90;;;;;;4917699;29;20042;-72
2022/06/18 02:52:40;;;;;;;15.13;10.60;;;15.10;99.90;;;;;;4925203;29;20058;-73
2022/06/18 02:55:19;;;;;;;19.60;12.35;;;15.00;99.90;;;;;;4927127;29;20040;-73
2022/06/18 02:57:47;;;;;;;18.52;13.25;;;15.00;99.90;;;;;;4927431;29;20023;-73
2022/06/18 03:00:14;;;;;;;18.73;13.95;;;15.00;99.90;;;;;;4926921;29;20059;-73
2022/06/18 03:02:40;;;;;;;19.25;13.65;;;15.00;99.90;;;;;;4915108;29;20048;-73
2022/06/18 03:05:06;;;;;;;18.67;14.48;;;15.00;99.90;;;;;;4919116;29;20036;-72
2022/06/18 03:07:32;;;;;;;20.52;14.20;;;15.00;99.90;;;;;;4920668;29;20051;-73
2022/06/18 03:12:42;;;;;;;17.60;13.18;;;15.00;99.90;;;;;;4919240;29;20303;-73
2022/06/18 03:15:08;;;;;;;18.27;13.82;;;15.00;99.90;;;;;;4909415;29;20579;-73
2022/06/18 03:17:33;;;;;;;22.85;14.63;;;15.00;99.90;;;;;;4922214;29;20032;-73
2022/06/18 03:20:07;;;;;;;21.50;14.85;;;15.00;99.90;;;;;;4927946;29;20047;-73
2022/06/18 03:22:32;;;;;;;23.55;16.33;;;15.00;99.90;;;;;;4925828;29;20044;-72
2022/06/18 03:24:58;;;;;;;21.40;14.73;;;15.00;99.90;;;;;;4917845;29;20039;-73
2022/06/18 03:27:23;;;;;;;20.70;14.88;;;15.00;99.90;;;;;;4919436;29;20472;-72
2022/06/18 03:29:52;;;;;;;19.67;13.02;;;15.00;99.90;;;;;;4925790;29;20554;-72
2022/06/18 03:32:18;;;;;;;19.17;13.45;;;14.90;99.90;;;;;;4927135;29;20071;-73
2022/06/18 03:34:43;;;;;;;17.83;14.02;;;14.90;99.90;;;;;;4925839;29;20439;-72
2022/06/18 03:37:09;;;;;;;20.85;14.20;;;14.90;99.90;;;;;;4919418;29;20531;-72
2022/06/18 03:39:35;;;;;;;20.75;12.95;;;14.90;99.90;;;;;;4910286;29;20114;-72
2022/06/18 03:42:02;;;;;;;16.92;13.13;;;14.80;99.90;;;;;;4925008;29;20111;-72
2022/06/18 03:44:27;;;;;;;19.98;13.30;;;14.80;99.90;;;;;;4926484;29;20484;-72
2022/06/18 03:46:53;;;;;;;17.60;13.15;;;14.70;99.90;;;;;;4924899;29;20111;-72
2022/06/18 03:49:28;;;;;;;19.63;13.90;;;14.70;99.90;;;;;;4924019;29;20031;-72
2022/06/18 03:51:55;;;;;;;20.13;13.40;;;14.70;99.90;;;;;;4922638;29;20138;-73
2022/06/18 03:54:21;;;;;;;17.65;14.15;;;14.60;99.90;;;;;;4926112;29;20035;-72
2022/06/18 03:56:48;;;;;;;17.75;13.52;;;14.60;99.90;;;;;;4926174;29;20051;-73
2022/06/18 03:59:14;;;;;;;18.15;12.73;;;14.60;99.90;;;;;;4914075;29;20036;-73
2022/06/18 04:01:40;;;;;;;16.33;12.48;;;14.60;99.90;;;;;;4907879;29;20067;-73
2022/06/18 04:04:11;;;;;;;15.65;12.23;;;14.50;99.90;;;;;;4925060;29;20126;-73
2022/06/18 04:06:38;;;;;;;21.95;13.07;;;14.50;99.90;;;;;;4924250;29;20195;-73
2022/06/18 04:09:05;;;;;;;16.67;11.32;;;14.50;99.90;;;;;;4924586;29;20043;-73
2022/06/18 04:11:31;;;;;;;17.02;10.60;;;14.50;99.90;;;;;;4926300;29;20028;-73
2022/06/18 04:13:57;;;;;;;15.70;11.07;;;14.50;99.90;;;;;;4922137;29;20055;-72
2022/06/18 04:16:23;;;;;;;16.55;11.65;;;14.50;99.90;;;;;;4924124;29;20111;-73
2022/06/18 04:18:49;;;;;;;16.65;11.45;;;14.60;99.90;;;;;;4926366;29;20114;-73
2022/06/18 04:21:15;;;;;;;20.98;12.13;;;14.60;99.90;;;;;;4922705;29;20516;-73
2022/06/18 04:23:42;;;;;;;21.38;11.15;;;14.70;99.90;;;;;;4920700;29;20049;-72
2022/06/18 04:26:09;;;;;;;16.15;11.80;;;14.70;99.90;;;;;;4921239;29;20028;-73
2022/06/18 04:28:34;;;;;;;21.08;11.50;;;14.80;99.90;;;;;;4915680;29;20078;-72
2022/06/18 04:31:01;;;;;;;18.63;11.70;;;14.80;99.90;;;;;;4922261;29;20098;-73
2022/06/18 04:33:27;;;;;;;14.70;11.63;;;14.90;99.90;;;;;;4925005;29;20074;-73
2022/06/18 04:35:54;;;;;;;18.77;12.70;;;15.00;99.90;;;;;;4909924;29;20106;-73
2022/06/18 04:38:20;;;;;;;15.10;11.75;;;15.00;99.90;;;;;;4918545;29;20047;-73
2022/06/18 04:40:47;;;;;;;18.33;12.57;;;15.10;99.90;;;;;;4923031;29;20304;-72
2022/06/18 04:43:12;;;;;;;16.88;11.00;;;15.10;99.90;;;;;;4938297;29;20031;-73
2022/06/18 04:45:38;;;;;;;15.02;11.30;;;15.20;99.90;;;;;;4927538;29;20046;-72
2022/06/18 04:48:06;;;;;;;17.77;10.88;;;15.30;99.90;;;;;;4926459;29;20036;-73
2022/06/18 04:50:35;;;;;;;14.18;11.20;;;15.40;99.90;;;;;;4913939;29;20082;-72
2022/06/18 04:53:01;;;;;;;15.48;11.93;;;15.50;99.90;;;;;;4926116;29;20046;-73
2022/06/18 04:55:26;;;;;;;24.30;12.60;;;15.60;99.90;;;;;;4925562;29;20043;-72
2022/06/18 04:57:52;;;;;;;18.90;11.20;;;15.80;99.90;;;;;;4919213;29;20133;-73
2022/06/18 05:00:19;;;;;;;18.48;12.18;;;15.90;99.90;;;;;;4921599;29;20043;-73
2022/06/18 05:02:45;;;;;;;15.23;10.82;;;16.00;99.90;;;;;;4914277;29;20091;-73
2022/06/18 05:05:21;;;;;;;14.48;10.25;;;16.10;99.90;;;;;;4923927;29;20035;-73
2022/06/18 05:07:46;;;;;;;20.13;11.88;;;16.20;99.90;;;;;;4907807;29;20497;-73
2022/06/18 05:10:12;;;;;;;13.20;9.88;;;16.30;99.90;;;;;;4921018;29;20046;-72
2022/06/18 05:12:38;;;;;;;18.42;9.75;;;16.40;99.90;;;;;;4924232;29;20050;-72
2022/06/18 05:15:05;;;;;;;10.85;9.13;;;16.40;99.90;;;;;;4917962;29;20048;-73
2022/06/18 05:17:34;;;;;;;12.77;9.82;;;16.50;99.90;;;;;;4906936;29;20036;-72
2022/06/18 05:20:00;;;;;;;17.48;9.15;;;16.50;99.90;;;;;;4914183;29;20061;-72
2022/06/18 05:22:27;;;;;;;13.30;8.55;;;16.60;99.90;;;;;;4921177;29;20039;-72
2022/06/18 05:24:53;;;;;;;11.93;8.60;;;16.60;99.90;;;;;;4913726;29;20035;-73
2022/06/18 05:27:26;;;;;;;11.45;8.27;;;16.60;99.90;;;;;;4922865;29;20027;-72
2022/06/18 05:29:53;;;;;;;15.73;8.90;;;16.70;99.90;;;;;;4919106;29;20051;-72
2022/06/18 05:32:19;;;;;;;14.95;8.75;;;16.80;99.90;;;;;;4918099;29;20032;-73
2022/06/18 05:34:45;;;;;;;13.25;8.45;;;16.90;99.90;;;;;;4911654;29;20116;-73
2022/06/18 05:37:19;;;;;;;11.68;8.60;;;17.00;99.90;;;;;;4925589;29;20032;-73
2022/06/18 05:39:44;;;;;;;16.13;8.48;;;17.10;99.90;;;;;;4921947;29;20054;-73
2022/06/18 05:42:10;;;;;;;15.68;8.63;;;17.30;99.90;;;;;;4908204;29;20044;-73
2022/06/18 05:44:37;;;;;;;13.65;8.35;;;17.50;99.90;;;;;;4924072;29;20028;-73
2022/06/18 05:47:13;;;;;;;12.07;8.35;;;17.70;99.90;;;;;;4924692;29;20582;-73
2022/06/18 05:49:40;;;;;;;21.50;9.98;;;17.80;99.90;;;;;;4924358;29;20035;-73
2022/06/18 05:52:06;;;;;;;15.32;9.20;;;17.90;99.90;;;;;;4914756;29;20040;-73
2022/06/18 05:54:31;;;;;;;14.05;9.10;;;18.10;99.90;;;;;;4911722;29;20040;-73
2022/06/18 05:56:57;;;;;;;19.25;9.57;;;18.30;99.90;;;;;;4917965;29;20039;-72
2022/06/18 05:59:23;;;;;;;19.30;9.45;;;18.50;99.90;;;;;;4912023;29;20042;-73
2022/06/18 06:01:48;;;;;;;19.85;9.43;;;18.80;99.90;;;;;;4922157;29;20554;-73
2022/06/18 06:04:16;;;;;;;14.43;7.65;;;19.20;99.90;;;;;;4916128;29;20131;-73
2022/06/18 06:06:42;;;;;;;16.10;8.38;;;19.50;99.90;;;;;;4916270;29;20021;-73
2022/06/18 06:09:12;;;;;;;16.80;7.55;;;19.80;99.90;;;;;;4912987;29;20042;-73
2022/06/18 06:11:38;;;;;;;12.70;7.45;;;19.80;99.90;;;;;;4925648;29;20480;-73
2022/06/18 06:14:04;;;;;;;9.45;7.65;;;19.90;99.90;;;;;;4918298;29;20731;-73
2022/06/18 06:16:30;;;;;;;11.77;8.05;;;20.10;99.90;;;;;;4917761;29;20444;-73
2022/06/18 06:18:57;;;;;;;13.73;7.65;;;20.30;99.90;;;;;;4927036;29;20036;-73
2022/06/18 06:21:22;;;;;;;8.50;7.45;;;20.40;99.90;;;;;;4917598;29;20524;-72
2022/06/18 06:23:49;;;;;;;13.85;6.85;;;20.40;99.90;;;;;;4926639;29;20051;-73
2022/06/18 06:26:17;;;;;;;14.05;7.57;;;20.50;99.90;;;;;;4922995;29;20479;-73
2022/06/18 06:28:43;;;;;;;12.75;6.95;;;20.40;99.90;;;;;;4915097;29;20067;-73
2022/06/18 06:31:09;;;;;;;11.02;6.72;;;20.40;99.90;;;;;;4920826;29;20659;-73
2022/06/18 06:33:35;;;;;;;11.70;6.90;;;20.60;99.90;;;;;;4916965;29;20036;-73
2022/06/18 06:36:01;;;;;;;16.42;11.00;;;20.80;99.90;;;;;;4922838;29;20537;-73
2022/06/18 06:38:26;;;;;;;9.30;6.13;;;21.10;99.90;;;;;;4921652;29;20175;-73
2022/06/18 06:40:54;;;;;;;14.48;7.05;;;21.40;99.90;;;;;;4922512;29;20117;-73
2022/06/18 06:43:20;;;;;;;13.25;7.43;;;21.60;99.90;;;;;;4924129;29;20063;-73
2022/06/18 06:45:46;;;;;;;19.35;7.05;;;21.90;99.90;;;;;;4926920;29;20078;-73
2022/06/18 06:48:11;;;;;;;10.52;5.93;;;22.00;99.90;;;;;;4919033;29;20044;-73
2022/06/18 06:50:38;;;;;;;18.27;6.75;;;22.20;99.90;;;;;;4922052;29;20074;-73
2022/06/18 06:53:03;;;;;;;12.85;7.43;;;22.40;99.90;;;;;;4919514;29;20040;-73
2022/06/18 06:58:19;;;;;;;11.88;7.00;;;22.50;99.90;;;;;;4919547;29;20074;-73
2022/06/18 07:00:51;;;;;;;11.75;6.85;;;22.80;99.90;;;;;;4921921;29;20031;-73
2022/06/18 07:03:20;;;;;;;13.20;6.03;;;23.00;99.90;;;;;;4928252;29;20546;-73
2022/06/18 07:05:46;;;;;;;8.88;6.15;;;23.20;99.90;;;;;;4913423;29;20128;-73
2022/06/18 07:08:12;;;;;;;14.68;6.47;;;23.40;99.90;;;;;;4916740;29;20118;-73
2022/06/18 07:10:39;;;;;;;21.52;9.05;;;23.50;99.90;;;;;;4922053;29;20032;-72
2022/06/18 07:13:05;;;;;;;10.13;6.43;;;23.50;99.90;;;;;;4918204;29;20031;-72
2022/06/18 07:15:32;;;;;;;12.32;5.88;;;23.50;99.90;;;;;;4924943;29;20235;-72
2022/06/18 07:17:58;;;;;;;10.23;6.30;;;23.40;99.90;;;;;;4919960;29;20035;-72
2022/06/18 07:20:24;;;;;;;15.50;6.95;;;23.90;99.90;;;;;;4920843;29;20530;-72
2022/06/18 07:22:50;;;;;;;13.65;6.75;;;24.30;99.90;;;;;;4918303;29;20036;-72
2022/06/18 07:25:16;;;;;;;13.77;5.97;;;24.40;99.90;;;;;;4921304;29;20051;-72
2022/06/18 07:27:43;;;;;;;12.80;5.65;;;24.80;99.90;;;;;;4921748;29;20043;-73
2022/06/18 07:30:10;;;;;;;12.95;5.68;;;25.00;99.90;;;;;;4922269;29;20028;-72
2022/06/18 07:32:45;;;;;;;13.77;6.22;;;25.40;99.90;;;;;;4923232;29;20484;-72
2022/06/18 07:35:21;;;;;;;11.63;6.15;;;26.10;99.90;;;;;;4909660;29;20062;-72
2022/06/18 07:37:47;;;;;;;11.10;6.25;;;26.70;99.90;;;;;;4911858;29;20028;-72
2022/06/18 07:40:14;;;;;;;18.90;6.38;;;27.50;99.90;;;;;;4910755;29;20059;-72
2022/06/18 07:42:42;;;;;;;12.05;5.85;;;27.80;99.90;;;;;;4909558;29;20550;-73
2022/06/18 07:45:21;;;;;;;14.93;5.97;;;28.30;99.60;;;;;;4908840;29;20044;-72
2022/06/18 07:47:47;;;;;;;9.13;5.45;;;29.30;96.80;;;;;;4910747;29;20546;-72
2022/06/18 07:50:14;;;;;;;14.07;5.10;;;29.60;94.80;;;;;;4909960;29;20688;-72
2022/06/18 07:52:40;;;;;;;15.90;5.57;;;29.80;93.00;;;;;;4920089;29;20040;-73
2022/06/18 07:55:10;;;;;;;11.77;5.97;;;30.70;91.30;;;;;;4924120;29;20043;-73
2022/06/18 07:57:36;;;;;;;9.82;5.07;;;31.50;86.30;;;;;;4910904;29;20035;-73
2022/06/18 08:00:04;;;;;;;11.35;5.50;;;31.50;77.60;;;;;;4917459;29;20039;-74
2022/06/18 08:02:30;;;;;;;9.10;5.20;;;31.20;76.10;;;;;;4915601;29;20043;-72
2022/06/18 08:04:55;;;;;;;11.48;5.32;;;31.30;80.80;;;;;;4925727;29;20035;-73
2022/06/18 08:07:21;;;;;;;8.95;4.85;;;30.80;79.30;;;;;;4923738;29;21464;-73
2022/06/18 08:09:47;;;;;;;9.48;5.47;;;31.10;81.20;;;;;;4922845;29;20090;-76
2022/06/18 08:12:12;;;;;;;9.27;4.93;;;30.60;83.90;;;;;;4912025;29;20077;-75
2022/06/18 08:14:38;;;;;;;11.50;5.60;;;30.50;90.80;;;;;;4916200;29;20108;-75
2022/06/18 08:17:04;;;;;;;9.98;5.60;;;30.40;86.70;;;;;;4923815;29;20491;-74
2022/06/18 08:19:30;;;;;;;9.32;5.13;;;31.00;86.00;;;;;;4912418;29;20032;-75
2022/06/18 08:21:55;;;;;;;11.15;5.72;;;31.00;80.70;;;;;;4913899;29;20032;-78
2022/06/18 08:24:22;;;;;;;12.70;5.32;;;31.50;79.60;;;;;;4919013;29;20046;-75
2022/06/18 08:26:50;;;;;;;10.52;4.65;;;31.90;74.40;;;;;;4910566;29;20034;-75
2022/06/18 08:29:19;;;;;;;7.72;5.10;;;33.10;77.50;;;;;;4911453;29;20113;-76
2022/06/18 08:31:45;;;;;;;14.73;5.07;;;34.20;59.90;;;;;;4922930;29;20471;-77
2022/06/18 08:34:12;;;;;;;13.32;5.40;;;34.80;56.40;;;;;;4919660;29;20043;-75
2022/06/18 08:36:39;;;;;;;9.82;4.78;;;35.50;56.70;;;;;;4917428;29;20139;-75
2022/06/18 08:39:06;;;;;;;11.27;5.03;;;36.00;55.80;;;;;;4921421;29;20440;-74
2022/06/18 08:41:54;;;;;;;11.20;5.57;;;35.80;52.60;;;;;;4911629;29;20043;-73
2022/06/18 08:44:38;;;;;;;11.32;4.78;;;34.20;59.00;;;;;;4926164;29;20374;-75
2022/06/18 08:47:25;;;;;;;14.40;5.47;;;34.20;61.90;;;;;;4923085;29;20548;-74
2022/06/18 08:50:25;;;;;;;11.20;4.55;;;34.40;57.30;;;;;;4906936;29;20036;-74
2022/06/18 08:53:39;;;;;;;15.18;5.78;;;32.80;62.10;;;;;;4909303;29;20039;-73
2022/06/18 08:56:26;;;;;;;12.30;5.38;;;31.30;70.30;;;;;;4879469;29;20193;-73
2022/06/18 08:59:17;;;;;;;12.52;5.35;;;31.80;71.70;;;;;;4918854;29;20059;-75
2022/06/18 09:01:49;;;;;;;12.97;5.10;;;33.70;68.70;;;;;;4917937;29;21394;-74
2022/06/18 09:04:35;;;;;;;13.88;5.30;;;35.20;57.40;;;;;;4920537;29;20028;-74
2022/06/18 09:07:13;;;;;;;11.93;5.35;;;36.50;50.40;;;;;;4921338;29;20055;-75
2022/06/18 09:10:12;;;;;;;12.98;5.20;;;37.00;48.60;;;;;;4923419;29;20039;-74
2022/06/18 09:12:46;;;;;;;9.68;4.63;;;37.20;44.60;;;;;;4579192;28;9999827;-74
2022/06/18 09:15:29;;;;;;;13.15;5.53;;;36.10;49.50;;;;;;4918144;29;20048;-74
2022/06/18 09:18:06;;;;;;;11.52;4.90;;;36.20;47.20;;;;;;4920921;29;20031;-74
2022/06/18 09:20:39;;;;;;;12.40;5.13;;;36.50;49.10;;;;;;4915905;29;20115;-74
2022/06/18 09:23:11;;;;;;;15.35;5.43;;;36.50;49.40;;;;;;4913959;29;20055;-75
2022/06/18 09:25:42;;;;;;;13.75;5.28;;;37.80;47.30;;;;;;4909786;29;20111;-75
2022/06/18 09:28:11;;;;;;;;;;;37.30;44.50;;;;;;4911719;29;20522;-75
2022/06/18 09:30:42;;;;;;;12.40;4.78;;;37.90;41.30;;;;;;4908285;29;20477;-75
2022/06/18 09:33:15;;;;;;;13.40;5.07;;;37.80;46.60;;;;;;4911274;29;20036;-74
2022/06/18 09:35:45;;;;;;;12.02;4.90;;;38.00;44.00;;;;;;4912120;29;20035;-75
2022/06/18 09:38:16;;;;;;;8.75;4.15;;;38.20;42.70;;;;;;4918113;29;20042;-75
2022/06/18 09:40:48;;;;;;;10.68;4.75;;;38.00;43.80;;;;;;4914008;29;20071;-75
2022/06/18 09:43:33;;;;;;;12.35;4.50;;;37.00;43.90;;;;;;4913348;29;20031;-75
2022/06/18 09:46:03;;;;;;;14.27;6.68;;;35.90;47.30;;;;;;4575276;29;10001021;-74
2022/06/18 09:48:28;;;;;;;14.10;5.50;;;34.30;50.80;;;;;;4910129;29;20032;-74
2022/06/18 09:51:04;;;;;;;13.23;4.90;;;33.80;60.10;;;;;;4910327;29;20038;-75
2022/06/18 09:53:37;;;;;;;15.40;6.20;;;33.60;56.20;;;;;;4909847;29;20078;-75
2022/06/18 09:56:12;;;;;;;12.73;5.28;;;33.50;64.10;;;;;;4911698;29;20032;-74
2022/06/18 09:58:45;;;;;;;9.77;4.93;;;34.70;54.00;;;;;;4911450;29;20039;-75
2022/06/18 10:01:16;;;;;;;12.98;4.63;;;35.80;61.50;;;;;;4906148;29;20028;-74
2022/06/18 10:09:24;;;;;;;11.68;4.50;;;37.50;47.30;;;;;;4911333;29;20050;-74
2022/06/18 10:11:51;;;;;;;13.48;5.10;;;38.00;44.50;;;;;;4910407;29;20024;-76
2022/06/18 10:14:19;;;;;;;14.45;5.10;;;37.90;46.10;;;;;;4911824;29;20052;-76
2022/06/18 10:16:54;;;;;;;11.40;4.90;;;37.80;46.60;;;;;;4923570;28;20987;-77
2022/06/18 10:19:55;;;;;;;11.95;4.68;;;38.20;42.60;;;;;;4908558;29;20082;-75
2022/06/18 10:22:26;;;;;;;;;;;37.80;41.90;;;;;;4916470;29;20047;-75
2022/06/18 10:25:10;;;;;;;;;;;37.80;42.90;;;;;;4908585;29;19922;-75
2022/06/18 10:27:49;;;;;;;9.88;5.03;;;37.80;41.70;;;;;;4912020;29;20394;-75
2022/06/18 10:30:29;;;;;;;14.35;5.30;;;37.20;47.60;;;;;;4908662;29;20024;-75
2022/06/18 10:33:18;;;;;;;13.63;5.65;;;37.70;45.60;;;;;;4912107;29;20119;-75
2022/06/18 10:35:54;;;;;;;15.10;4.70;;;38.00;42.50;;;;;;4919837;29;20035;-75
2022/06/18 10:38:58;;;;;;;13.48;5.13;;;38.40;45.50;;;;;;4912804;29;20032;-74
2022/06/18 10:41:39;;;;;;;14.63;5.50;;;37.00;46.90;;;;;;4924590;29;20036;-74
2022/06/18 10:44:11;;;;;;;11.40;5.13;;;35.60;50.70;;;;;;4909608;29;20768;-74
2022/06/18 10:46:37;;;;;;;17.73;5.50;;;35.70;48.20;;;;;;4909967;29;22035;-74
2022/06/18 10:49:05;;;;;;;9.82;4.57;;;36.60;56.10;;;;;;4908865;29;20513;-75
2022/06/18 10:51:46;;;;;;;11.88;5.03;;;37.30;46.50;;;;;;4909093;29;20595;-75
2022/06/18 10:54:13;;;;;;;11.05;5.07;;;37.50;48.20;;;;;;4909579;29;20151;-76
2022/06/18 10:56:52;;;;;;;15.05;5.65;;;37.20;49.90;;;;;;4910200;29;20778;-75
2022/06/18 10:59:39;;;;;;;10.43;5.25;;;37.00;49.80;;;;;;4908630;29;20036;-75
2022/06/18 11:02:12;;;;;;;12.40;5.35;;;36.40;46.90;;;;;;4910559;29;20095;-75
2022/06/18 11:04:39;;;;;;;10.63;5.15;;;35.30;55.20;;;;;;4910869;29;20990;-75
2022/06/18 11:07:08;;;;;;;15.00;5.20;;;34.50;55.50;;;;;;4909755;29;20138;-74
2022/06/18 11:09:49;;;;;;;11.52;5.00;;;33.40;64.00;;;;;;4912342;29;20063;-73
2022/06/18 11:12:31;;;;;;;8.93;4.57;;;32.00;62.70;;;;;;4910148;29;20043;-74
2022/06/18 11:14:57;;;;;;;14.55;4.97;;;31.20;69.20;;;;;;4924959;28;20060;-74
2022/06/18 11:17:27;;;;;;;12.07;4.75;;;30.40;80.30;;;;;;4912057;29;20479;-73
2022/06/18 11:19:53;;;;;;;13.00;4.90;;;29.40;93.60;;;;;;4911072;29;20041;-74
2022/06/18 11:22:26;;;;;;;7.57;3.58;;;29.50;99.90;;;;;;4921902;29;20122;-73
2022/06/18 11:25:00;;;;;;;7.60;3.70;;;30.10;94.10;;;;;;4915418;29;20405;-74
2022/06/18 11:27:32;;;;;;;9.02;3.70;;;31.70;93.50;;;;;;4930493;29;20031;-74
2022/06/18 11:29:58;;;;;;;11.82;3.58;;;32.30;92.30;;;;;;4927941;29;20056;-74
2022/06/18 11:32:31;;;;;;;7.10;3.13;;;32.80;83.40;;;;;;4914934;29;20159;-73
2022/06/18 11:35:05;;;;;;;9.35;3.13;;;32.40;77.10;;;;;;4917083;29;20115;-73
2022/06/18 11:37:32;;;;;;;10.15;3.60;;;31.90;80.30;;;;;;4934411;29;20163;-74
2022/06/18 11:40:04;;;;;;;9.27;3.70;;;31.40;81.20;;;;;;4926973;29;20034;-75
2022/06/18 11:43:02;;;;;;;6.38;2.60;;;31.10;76.20;;;;;;4922329;29;20168;-74
2022/06/18 11:45:44;;;;;;;5.80;3.05;;;31.30;96.90;;;;;;4914801;29;20036;-74
2022/06/18 11:48:40;;;;;;;9.35;3.53;;;31.90;89.40;;;;;;4920949;29;20031;-74
2022/06/18 11:51:32;;;;;;;8.75;2.88;;;32.00;90.70;;;;;;4913752;29;20031;-75
2022/06/18 11:54:10;;;;;;;8.50;2.90;;;32.30;83.00;;;;;;4913724;29;20040;-75
2022/06/18 11:57:03;;;;;;;8.05;3.53;;;31.90;90.70;;;;;;4909589;29;20024;-75
2022/06/18 11:59:52;;;;;;;8.70;3.20;;;31.20;84.10;;;;;;4915484;29;20035;-75
2022/06/18 12:02:41;;;;;;;8.10;3.65;;;30.20;96.70;;;;;;4902955;29;20023;-73
2022/06/18 12:05:13;;;;;;;6.95;3.67;;;29.30;94.90;;;;;;4905343;29;20047;-74
2022/06/18 12:07:51;;;;;;;6.82;3.70;;;28.40;99.70;;;;;;4923492;29;20027;-73
2022/06/18 12:10:19;;;;;;;8.07;4.00;;;28.00;99.30;;;;;;4913529;29;20150;-74
2022/06/18 12:13:20;;;;;;;10.57;3.42;;;28.20;99.40;;;;;;4912147;29;20047;-73
2022/06/18 12:15:59;;;;;;;8.07;2.90;;;29.00;96.20;;;;;;4907552;29;20140;-74
2022/06/18 12:18:42;;;;;;;6.72;3.30;;;29.90;94.90;;;;;;4915918;29;21135;-73
2022/06/18 12:21:17;;;;;;;11.40;4.00;;;30.40;91.00;;;;;;4910942;29;20150;-73
2022/06/18 12:24:24;;;;;;;9.70;3.38;;;30.70;97.00;;;;;;4912476;29;20087;-73
2022/06/18 12:27:11;;;;;;;5.28;2.67;;;30.90;90.00;;;;;;4911317;29;20031;-73
2022/06/18 12:29:55;;;;;;;7.43;3.10;;;30.60;85.70;;;;;;4569633;29;10000594;-73
2022/06/18 12:32:21;;;;;;;8.82;3.33;;;30.50;94.80;;;;;;4908028;29;20483;-73
2022/06/18 12:34:49;;;;;;;5.40;3.63;;;30.00;86.20;;;;;;4911700;29;20049;-73
2022/06/18 12:37:30;;;;;;;8.00;3.30;;;29.20;88.80;;;;;;4910212;29;20031;-73
2022/06/18 12:40:17;;;;;;;8.75;3.45;;;28.80;94.90;;;;;;4910210;29;20043;-73
2022/06/18 12:42:55;;;;;;;8.60;3.58;;;28.50;98.50;;;;;;4911075;29;21046;-73
2022/06/18 12:45:23;;;;;;;9.15;3.63;;;28.20;98.10;;;;;;4914863;29;20098;-73
2022/06/18 12:47:49;;;;;;;9.55;3.47;;;27.80;97.80;;;;;;4914008;29;20032;-73
2022/06/18 12:50:35;;;;;;;7.50;3.35;;;27.80;99.90;;;;;;4910921;29;20041;-73
2022/06/18 12:53:16;;;;;;;9.90;3.75;;;27.90;97.20;;;;;;4909470;29;20035;-73
2022/06/18 12:56:20;;;;;;;;;;;28.10;93.80;;;;;;4903774;29;20078;-73
2022/06/18 12:59:01;;;;;;;6.80;3.03;;;28.30;95.10;;;;;;4854206;29;19954;-76
2022/06/18 13:01:44;;;;;;;10.48;3.72;;;28.50;93.30;;;;;;4876121;29;20080;-75
2022/06/18 13:04:28;;;;;;;7.63;3.17;;;28.30;91.40;;;;;;4903214;29;20130;-75
2022/06/18 13:07:01;;;;;;;10.13;3.28;;;28.20;93.20;;;;;;4914248;29;20028;-75
2022/06/18 13:09:50;;;;;;;5.20;3.50;;;28.10;97.60;;;;;;4914120;29;20559;-75
2022/06/18 13:12:45;;;;;;;8.63;3.72;;;28.20;99.40;;;;;;4911410;29;20035;-75
2022/06/18 13:15:28;;;;;;;5.72;3.13;;;27.90;91.60;;;;;;4909994;29;20059;-74